createdAt,value
2022-07-29T18:09:47.506Z,101723.97
2022-07-29T18:12:14.087Z,101724.88
2022-07-29T18:14:40.694Z,101725.19
2022-07-29T18:17:07.275Z,101727.75
2022-07-29T18:19:33.837Z,101724.66
2022-07-29T18:22:04.838Z,101732.03
2022-07-29T18:24:32.212Z,101729.59
2022-07-29T18:26:59.064Z,101728.91
2022-07-29T18:29:28.879Z,101734.31
2022-07-29T18:31:55.820Z,101731.81
2022-07-29T18:34:22.388Z,101736.31
2022-07-29T18:36:48.960Z,101729.19
2022-07-29T18:39:21.276Z,101730.88
2022-07-29T18:41:50.592Z,101734.88
2022-07-29T18:44:18.410Z,101731.22
2022-07-29T18:46:47.257Z,101737.25
2022-07-29T18:49:14.736Z,101735.38
2022-07-29T18:51:41.470Z,101738.22
2022-07-29T18:54:09.236Z,101738.31
2022-07-29T18:56:36.000Z,101740.06
2022-07-29T18:59:03.060Z,101739.16
2022-07-29T19:01:31.608Z,101743.81
2022-07-29T19:03:58.783Z,101754.66
2022-07-29T19:06:25.854Z,101751.00
2022-07-29T19:08:52.835Z,101756.53
2022-07-29T19:11:19.544Z,101754.66
2022-07-29T19:13:46.113Z,101754.78
2022-07-29T19:16:14.032Z,101754.84
2022-07-29T19:18:41.331Z,101752.22
2022-07-29T19:21:07.914Z,101763.09
2022-07-29T19:24:05.848Z,101763.25
2022-07-29T19:26:21.146Z,101765.03
2022-07-29T19:28:48.795Z,101756.97
2022-07-29T19:31:15.859Z,101764.28
2022-07-29T19:33:42.753Z,101763.56
2022-07-29T19:36:09.400Z,101770.03
2022-07-29T19:38:38.150Z,101762.72
2022-07-29T19:41:06.224Z,101770.81
2022-07-29T19:43:50.863Z,101764.59
2022-07-29T19:46:20.403Z,101770.09
2022-07-29T19:48:47.095Z,101766.47
2022-07-29T19:51:13.936Z,101775.56
2022-07-29T19:53:40.498Z,101779.16
2022-07-29T19:56:08.757Z,101778.28
2022-07-29T19:58:35.830Z,101782.91
2022-07-29T20:01:02.986Z,101790.19
2022-07-29T20:03:39.725Z,101781.06
2022-07-29T20:06:07.479Z,101788.41
2022-07-29T20:08:34.396Z,101793.09
2022-07-29T20:11:00.981Z,101795.78
2022-07-29T20:13:27.627Z,101795.78
2022-07-29T20:15:54.261Z,101792.25
2022-07-29T20:18:20.887Z,101797.56
2022-07-29T20:20:49.188Z,101792.41
2022-07-29T20:23:16.498Z,101793.28
2022-07-29T20:25:43.076Z,101788.78
2022-07-29T20:28:09.808Z,101780.53
2022-07-29T20:30:38.571Z,101787.88
2022-07-29T20:33:05.843Z,101787.91
2022-07-29T20:35:32.512Z,101788.06
2022-07-29T20:38:00.368Z,101798.03
2022-07-29T20:40:27.260Z,101788.00
2022-07-29T20:42:54.314Z,101792.34
2022-07-29T20:45:21.420Z,101788.91
2022-07-29T20:47:48.029Z,101788.06
2022-07-29T20:50:15.020Z,101781.00
2022-07-29T20:52:43.333Z,101789.03
2022-07-29T20:55:10.675Z,101792.72
2022-07-29T20:57:38.904Z,101791.03
2022-07-29T21:00:07.467Z,101794.66
2022-07-29T21:02:34.294Z,101794.78
2022-07-29T21:05:01.157Z,101793.00
2022-07-29T21:07:27.937Z,101794.66
2022-07-29T21:09:54.531Z,101790.22
2022-07-29T21:12:21.128Z,101798.41
2022-07-29T21:14:48.106Z,101798.31
2022-07-29T21:17:16.025Z,101800.19
2022-07-29T21:19:42.805Z,101799.50
2022-07-29T21:22:09.647Z,101794.84
2022-07-29T21:24:36.209Z,101801.28
2022-07-29T21:27:21.993Z,101797.56
2022-07-29T21:29:49.206Z,101796.72
2022-07-29T21:32:29.678Z,101799.47
2022-07-29T21:34:56.879Z,101799.63
2022-07-29T21:37:23.452Z,101807.63
2022-07-29T21:39:50.023Z,101804.94
2022-07-29T21:42:16.681Z,101803.41
2022-07-29T21:44:43.310Z,101801.41
2022-07-29T21:47:10.639Z,101803.28
2022-07-29T21:49:37.530Z,101800.69
2022-07-29T21:52:04.730Z,101793.41
2022-07-29T21:54:31.409Z,101798.78
2022-07-29T21:56:58.072Z,101789.88
2022-07-29T21:59:24.901Z,101800.69
2022-07-29T22:01:51.594Z,101791.78
2022-07-29T22:04:18.278Z,101793.56
2022-07-29T22:06:44.932Z,101797.19
2022-07-29T22:09:11.507Z,101793.69
2022-07-29T22:11:38.066Z,101793.69
2022-07-29T22:14:05.230Z,101793.56
2022-07-29T22:16:31.872Z,101797.31
2022-07-29T22:18:58.660Z,101791.00
2022-07-29T22:21:25.289Z,101786.47
2022-07-29T22:23:51.859Z,101788.25
2022-07-29T22:26:19.004Z,101785.69
2022-07-29T22:28:45.568Z,101791.91
2022-07-29T22:31:12.389Z,101782.06
2022-07-29T22:33:39.081Z,101779.53
2022-07-29T22:36:05.844Z,101778.31
2022-07-29T22:38:32.425Z,101785.81
2022-07-29T22:41:01.349Z,101790.38
2022-07-29T22:43:28.184Z,101790.47
2022-07-29T22:45:54.887Z,101794.00
2022-07-29T22:48:21.495Z,101791.28
2022-07-29T22:50:48.089Z,101789.66
2022-07-29T22:53:14.737Z,101789.66
2022-07-29T22:55:41.350Z,101786.91
2022-07-29T22:58:07.960Z,101780.75
2022-07-29T23:00:34.598Z,101789.56
2022-07-29T23:03:01.217Z,101788.06
2022-07-29T23:05:27.957Z,101785.13
2022-07-29T23:07:54.536Z,101786.84
2022-07-29T23:10:22.810Z,101787.16
2022-07-29T23:12:49.457Z,101779.88
2022-07-29T23:15:16.007Z,101780.75
2022-07-29T23:17:44.754Z,101777.25
2022-07-29T23:20:11.529Z,101774.66
2022-07-29T23:22:41.584Z,101775.53
2022-07-29T23:25:08.448Z,101771.09
2022-07-29T23:27:35.247Z,101768.50
2022-07-29T23:30:02.519Z,101769.25
2022-07-29T23:32:29.166Z,101768.59
2022-07-29T23:34:55.762Z,101764.06
2022-07-29T23:37:22.383Z,101760.38
2022-07-29T23:39:48.946Z,101757.69
2022-07-29T23:42:15.519Z,101762.28
2022-07-29T23:44:42.088Z,101758.59
2022-07-29T23:47:08.667Z,101771.25
2022-07-29T23:49:35.302Z,101767.69
2022-07-29T23:52:01.902Z,101763.09
2022-07-29T23:54:28.497Z,101764.19
2022-07-29T23:56:57.724Z,101757.75
2022-07-29T23:59:24.746Z,101763.16
